createdAt,value
2022-08-17T00:03:28.801Z,993.18
2022-08-17T00:08:28.784Z,993.15
2022-08-17T00:13:28.715Z,993.05
2022-08-17T00:19:01.157Z,993.04
2022-08-17T00:23:29.606Z,993.02
2022-08-17T00:28:28.556Z,993.03
2022-08-17T00:33:28.774Z,993.01
2022-08-17T00:38:28.453Z,992.97
2022-08-17T00:43:28.373Z,992.92
2022-08-17T00:48:29.839Z,992.91
2022-08-17T00:53:28.286Z,992.89
2022-08-17T00:58:35.428Z,992.84
2022-08-17T01:03:29.177Z,992.76
2022-08-17T01:08:28.116Z,992.72
2022-08-17T01:13:28.054Z,992.69
2022-08-17T01:18:28.020Z,992.78
2022-08-17T01:23:27.944Z,992.77
2022-08-17T01:28:52.785Z,992.85
2022-08-17T01:33:28.848Z,992.84
2022-08-17T01:38:27.776Z,992.82
2022-08-17T01:43:27.785Z,992.79
2022-08-17T01:48:27.741Z,992.78
2022-08-17T01:53:27.635Z,992.82
2022-08-17T01:58:27.579Z,992.82
2022-08-17T02:03:34.589Z,992.82
2022-08-17T02:08:38.690Z,992.85
2022-08-17T02:13:28.427Z,992.82
2022-08-17T02:18:27.349Z,992.80
2022-08-17T02:23:27.286Z,992.75
2022-08-17T02:28:27.249Z,992.71
2022-08-17T02:33:42.154Z,992.69
2022-08-17T02:38:28.139Z,992.68
2022-08-17T02:43:27.088Z,992.62
2022-08-17T02:48:28.168Z,992.74
2022-08-17T02:53:26.979Z,992.74
2022-08-17T02:58:29.589Z,992.70
2022-08-17T03:03:27.861Z,992.65
2022-08-17T03:08:26.970Z,992.56
2022-08-17T03:13:26.751Z,992.51
2022-08-17T03:18:26.860Z,992.55
2022-08-17T03:23:27.276Z,992.53
2022-08-17T03:28:26.620Z,992.51
2022-08-17T03:33:26.555Z,992.51
2022-08-17T03:38:26.497Z,992.47
2022-08-17T03:43:26.430Z,992.45
2022-08-17T03:48:26.370Z,992.53
2022-08-17T03:53:27.468Z,992.53
2022-08-17T03:58:26.258Z,992.53
2022-08-17T04:03:26.213Z,992.57
2022-08-17T04:08:26.161Z,992.54
2022-08-17T04:13:26.089Z,992.58
2022-08-17T04:18:26.042Z,992.60
2022-08-17T04:23:25.977Z,992.65
2022-08-17T04:28:25.940Z,992.71
2022-08-17T04:33:25.890Z,992.80
2022-08-17T04:38:25.818Z,992.78
2022-08-17T04:43:25.760Z,992.78
2022-08-17T04:48:35.517Z,992.86
2022-08-17T04:53:26.728Z,992.82
2022-08-17T04:58:25.632Z,992.90
2022-08-17T05:03:25.551Z,992.88
2022-08-17T05:08:25.542Z,992.88
2022-08-17T05:13:25.458Z,992.94
2022-08-17T05:18:25.466Z,992.92
2022-08-17T05:23:25.361Z,992.90
2022-08-17T05:28:27.544Z,992.87
2022-08-17T05:33:25.331Z,992.78
2022-08-17T05:38:25.171Z,992.79
2022-08-17T05:43:25.119Z,992.81
2022-08-17T05:48:39.510Z,992.80
2022-08-17T05:53:26.140Z,992.78
2022-08-17T05:58:24.941Z,992.74
2022-08-17T06:03:24.971Z,992.71
2022-08-17T06:08:24.921Z,992.66
2022-08-17T06:13:24.863Z,992.62
2022-08-17T06:18:24.765Z,992.65
2022-08-17T06:23:24.786Z,992.56
2022-08-17T06:28:24.707Z,992.63
2022-08-17T06:33:24.609Z,992.62
2022-08-17T06:38:37.166Z,992.63
2022-08-17T06:43:25.490Z,992.51
2022-08-17T06:48:24.461Z,992.56
2022-08-17T06:53:24.380Z,992.66
2022-08-17T06:58:24.313Z,992.65
2022-08-17T07:03:25.281Z,992.98
2022-08-17T07:08:29.136Z,993.10
2022-08-17T07:13:25.283Z,992.98
2022-08-17T07:18:24.202Z,993.14
2022-08-17T07:23:24.045Z,993.11
2022-08-17T07:28:24.007Z,993.27
2022-08-17T07:33:23.956Z,993.32
2022-08-17T07:38:24.637Z,993.37
2022-08-17T07:43:23.902Z,993.33
2022-08-17T07:48:23.812Z,993.46
2022-08-17T07:53:23.735Z,993.45
2022-08-17T07:58:23.755Z,993.47
2022-08-17T08:03:25.982Z,993.48
2022-08-17T13:57:43.381Z,993.55
2022-08-17T14:02:43.414Z,993.56
2022-08-17T14:10:55.040Z,993.57
2022-08-17T14:15:56.699Z,993.57
2022-08-17T14:20:54.907Z,993.65
2022-08-17T14:25:54.862Z,993.62
2022-08-17T14:30:54.830Z,993.52
2022-08-17T14:35:54.804Z,993.49
2022-08-17T14:40:54.726Z,993.51
2022-08-17T14:45:54.735Z,993.55
2022-08-17T14:50:54.627Z,993.42
2022-08-17T14:55:54.613Z,993.46
2022-08-17T15:00:54.684Z,993.41
2022-08-17T15:05:54.519Z,993.45
2022-08-17T15:10:54.622Z,993.40
2022-08-17T15:15:54.489Z,993.35
2022-08-17T15:20:54.360Z,993.22
2022-08-17T15:25:54.438Z,993.19
2022-08-17T15:30:54.212Z,993.23
2022-08-17T15:35:54.176Z,993.21
2022-08-17T15:40:54.198Z,993.21
2022-08-17T15:45:59.716Z,993.17
2022-08-17T15:50:55.060Z,993.19
2022-08-17T15:55:54.955Z,993.26
2022-08-17T16:01:18.268Z,993.22
2022-08-17T16:05:54.878Z,993.22
2022-08-17T16:10:53.761Z,993.30
2022-08-17T16:15:57.019Z,993.30
2022-08-17T16:20:53.644Z,993.45
2022-08-17T16:25:54.534Z,993.50
2022-08-17T16:30:54.617Z,993.53
2022-08-17T16:35:53.473Z,993.53
2022-08-17T16:40:53.578Z,993.53
2022-08-17T16:45:53.379Z,993.62
2022-08-17T16:51:02.922Z,993.69
2022-08-17T16:55:54.429Z,993.63
2022-08-17T17:00:53.364Z,993.68
2022-08-17T17:05:57.828Z,993.66
2022-08-17T17:10:54.245Z,993.61
2022-08-17T17:15:53.034Z,993.70
2022-08-17T17:20:53.033Z,993.73
2022-08-17T17:25:56.445Z,993.79
2022-08-17T17:30:52.862Z,993.81
2022-08-17T17:35:52.917Z,993.89
2022-08-17T17:40:52.875Z,993.97
2022-08-17T17:45:52.728Z,994.09
2022-08-17T17:50:53.750Z,994.02
2022-08-17T17:55:52.817Z,994.14
2022-08-17T18:00:52.733Z,994.31
2022-08-17T18:05:52.571Z,994.33
2022-08-17T18:10:52.597Z,994.44
2022-08-17T18:15:52.651Z,994.39
2022-08-17T18:20:55.957Z,994.35
2022-08-17T18:25:52.291Z,994.38
2022-08-17T18:30:52.365Z,994.40
2022-08-17T18:35:58.811Z,994.44
2022-08-17T18:40:53.274Z,994.48
2022-08-17T18:45:52.071Z,994.56
2022-08-17T18:50:53.519Z,994.59
2022-08-17T18:55:52.056Z,994.66
2022-08-17T19:00:51.906Z,994.74
2022-08-17T19:05:51.864Z,994.76
2022-08-17T19:10:51.798Z,995.04
2022-08-17T19:16:13.718Z,995.11
2022-08-17T19:20:52.697Z,995.21
2022-08-17T19:25:52.557Z,995.15
2022-08-17T19:30:51.573Z,995.21
2022-08-17T19:35:51.590Z,995.12
2022-08-17T19:40:53.732Z,995.00
2022-08-17T19:45:51.456Z,995.05
2022-08-17T19:50:51.373Z,995.05
2022-08-17T19:55:51.395Z,995.02
2022-08-17T20:00:51.242Z,994.98
2022-08-17T20:06:11.452Z,995.01
2022-08-17T20:10:54.494Z,995.21
2022-08-17T20:15:51.046Z,995.17
2022-08-17T20:20:51.020Z,995.21
2022-08-17T20:25:50.937Z,995.19
2022-08-17T20:30:50.898Z,995.17
2022-08-17T20:35:50.861Z,995.11
2022-08-17T20:40:51.924Z,995.19
2022-08-17T20:45:50.950Z,995.22
2022-08-17T20:50:50.768Z,995.35
2022-08-17T20:55:51.644Z,995.41
2022-08-17T21:00:50.668Z,995.46
2022-08-17T21:05:50.565Z,995.41
2022-08-17T21:10:51.541Z,995.44
2022-08-17T21:15:50.423Z,995.47
2022-08-17T21:20:50.355Z,995.44
2022-08-17T21:25:50.461Z,995.44
2022-08-17T21:30:50.414Z,995.43
2022-08-17T21:35:50.369Z,995.45
2022-08-17T21:40:50.272Z,995.53
2022-08-17T21:45:50.237Z,995.59
2022-08-17T21:50:50.156Z,995.55
2022-08-17T21:55:49.996Z,995.58
2022-08-17T22:00:50.006Z,995.60
2022-08-17T22:05:49.875Z,995.63
2022-08-17T22:10:49.831Z,995.72
2022-08-17T22:15:49.772Z,995.77
2022-08-17T22:20:49.717Z,995.81
2022-08-17T22:25:49.743Z,995.84
2022-08-17T22:30:49.584Z,995.81
2022-08-17T22:35:49.548Z,995.72
2022-08-17T22:40:51.592Z,995.65
2022-08-17T22:45:49.418Z,995.65
2022-08-17T22:50:49.537Z,995.73
2022-08-17T22:55:49.334Z,995.74
2022-08-17T23:00:49.286Z,995.75
2022-08-17T23:05:49.356Z,995.78
2022-08-17T23:10:49.296Z,995.79
2022-08-17T23:15:49.085Z,995.86
2022-08-17T23:20:49.026Z,995.78
2022-08-17T23:25:48.997Z,995.78
2022-08-17T23:30:48.928Z,995.74
2022-08-17T23:35:48.846Z,995.73
2022-08-17T23:40:48.809Z,995.78
2022-08-17T23:45:48.777Z,995.79
2022-08-17T23:50:48.710Z,995.81
2022-08-17T23:55:48.646Z,995.83
